Time;durP1;ratioP1;P1;durP2;ratioP2;P2;SDS_P1;SDS_P2;PMS_P1;PMS_P2;Temp;Humidity;BMP_temperature;BMP_pressure;BME280_temperature;BME280_humidity;BME280_pressure;Samples;Min_cycle;Max_cycle;Signal;HPM_P1;HPM_P2
2022/03/18 00:02:25;;;;;;;9.68;2.58;;;9.40;99.90;;;;;;5066525;28;20027;-84
2022/03/18 00:04:52;;;;;;;6.88;2.20;;;9.40;99.90;;;;;;5056376;28;20025;-80
2022/03/18 00:07:20;;;;;;;6.10;2.38;;;9.30;99.90;;;;;;5068597;28;20135;-86
2022/03/18 00:09:49;;;;;;;8.73;2.55;;;9.30;99.90;;;;;;5060081;28;20020;-82
2022/03/18 00:12:16;;;;;;;7.68;2.20;;;9.30;99.90;;;;;;5061538;28;20080;-84
2022/03/18 00:14:43;;;;;;;5.13;2.30;;;9.30;99.90;;;;;;5067720;28;20017;-83
2022/03/18 00:17:09;;;;;;;6.20;2.65;;;9.30;99.90;;;;;;5054239;28;20053;-84
2022/03/18 00:19:36;;;;;;;6.15;2.63;;;9.20;99.90;;;;;;5058485;28;20044;-85
2022/03/18 00:22:03;;;;;;;5.65;2.30;;;9.20;99.90;;;;;;5062159;28;20024;-84
2022/03/18 00:24:31;;;;;;;11.15;2.67;;;9.20;99.90;;;;;;5065540;28;20021;-86
2022/03/18 00:26:58;;;;;;;6.45;2.50;;;9.20;99.90;;;;;;5056120;28;20027;-85
2022/03/18 00:29:23;;;;;;;4.85;2.10;;;9.20;99.90;;;;;;5067778;28;20021;-83
2022/03/18 00:31:49;;;;;;;7.72;2.97;;;9.20;99.90;;;;;;5051032;28;20025;-81
2022/03/18 00:34:15;;;;;;;6.57;2.65;;;9.20;99.90;;;;;;5051751;28;20017;-82
2022/03/18 00:36:41;;;;;;;4.28;2.38;;;9.10;99.90;;;;;;5051993;28;20078;-82
2022/03/18 00:39:07;;;;;;;9.13;2.53;;;9.20;99.90;;;;;;5051809;28;20017;-83
2022/03/18 00:41:33;;;;;;;8.32;2.50;;;9.10;99.90;;;;;;5052363;28;20446;-83
2022/03/18 00:43:59;;;;;;;6.57;2.55;;;9.10;99.90;;;;;;5052567;28;20028;-83
2022/03/18 00:46:24;;;;;;;4.80;2.13;;;9.10;99.90;;;;;;5051954;28;20021;-84
2022/03/18 00:54:19;;;;;;;6.63;2.25;;;9.10;99.90;;;;;;5052716;28;20056;-84
2022/03/18 00:56:44;;;;;;;8.20;2.50;;;9.00;99.90;;;;;;5052402;28;20446;-82
2022/03/18 00:59:10;;;;;;;9.82;2.45;;;9.00;99.90;;;;;;5053124;28;20064;-82
2022/03/18 01:01:35;;;;;;;10.32;2.75;;;9.00;99.90;;;;;;5052620;28;20037;-84
2022/03/18 01:04:01;;;;;;;6.57;2.63;;;9.00;99.90;;;;;;5052200;28;20032;-83
2022/03/18 01:06:27;;;;;;;4.63;2.15;;;9.00;99.90;;;;;;5054787;28;20025;-83
2022/03/18 01:08:53;;;;;;;6.78;2.10;;;9.00;99.90;;;;;;5055490;28;20029;-82
2022/03/18 01:11:19;;;;;;;7.90;2.60;;;9.10;99.90;;;;;;5057039;28;20512;-82
2022/03/18 01:13:44;;;;;;;9.00;3.13;;;9.00;99.90;;;;;;5057327;28;20025;-83
2022/03/18 01:16:10;;;;;;;7.22;2.53;;;9.00;99.90;;;;;;5056670;28;20052;-82
2022/03/18 01:18:36;;;;;;;8.27;2.35;;;9.00;99.90;;;;;;5064964;28;20044;-82
2022/03/18 01:21:01;;;;;;;6.85;2.15;;;9.00;99.90;;;;;;5076511;28;20021;-82
2022/03/18 01:23:27;;;;;;;11.25;2.72;;;9.00;99.90;;;;;;5077140;28;20024;-83
2022/03/18 01:25:54;;;;;;;5.97;2.33;;;8.90;99.90;;;;;;5076479;28;20373;-82
2022/03/18 01:28:19;;;;;;;7.80;2.70;;;9.00;99.90;;;;;;5077031;28;20023;-83
2022/03/18 01:30:45;;;;;;;5.82;2.55;;;8.90;99.90;;;;;;5076594;28;20033;-83
2022/03/18 01:33:10;;;;;;;7.57;2.33;;;8.90;99.90;;;;;;5076340;28;20468;-83
2022/03/18 01:35:37;;;;;;;6.80;2.58;;;8.90;99.90;;;;;;5076942;28;20055;-83
2022/03/18 01:38:03;;;;;;;7.35;2.50;;;8.90;99.90;;;;;;5058435;28;20035;-83
2022/03/18 01:40:29;;;;;;;6.13;2.38;;;8.80;99.90;;;;;;5058938;28;20021;-83
2022/03/18 01:42:55;;;;;;;7.55;2.28;;;8.80;99.90;;;;;;5058439;28;20027;-82
2022/03/18 01:45:21;;;;;;;6.93;2.28;;;8.90;99.90;;;;;;5058848;28;20017;-83
2022/03/18 01:47:47;;;;;;;8.70;2.60;;;8.90;99.90;;;;;;5076135;28;20544;-83
2022/03/18 01:50:14;;;;;;;8.75;2.47;;;8.90;99.90;;;;;;5058215;28;20441;-83
2022/03/18 01:52:41;;;;;;;8.00;2.53;;;8.90;99.90;;;;;;5058699;28;20021;-83
2022/03/18 01:55:07;;;;;;;4.82;2.50;;;8.90;99.90;;;;;;5075724;28;20016;-83
2022/03/18 01:57:33;;;;;;;7.03;2.47;;;8.80;99.90;;;;;;5076059;28;20453;-83
2022/03/18 01:59:59;;;;;;;6.18;2.38;;;8.80;99.90;;;;;;5057663;28;20074;-82
2022/03/18 02:02:25;;;;;;;8.93;3.00;;;8.80;99.90;;;;;;5058418;28;20028;-82
2022/03/18 02:04:51;;;;;;;9.18;3.08;;;8.80;99.90;;;;;;5058367;28;20025;-81
2022/03/18 02:07:17;;;;;;;5.82;2.50;;;8.80;99.90;;;;;;5076030;28;20166;-81
2022/03/18 02:09:44;;;;;;;6.95;2.47;;;8.80;99.90;;;;;;5058546;28;20459;-82
2022/03/18 02:12:11;;;;;;;8.55;2.50;;;8.80;99.90;;;;;;5075591;28;20027;-81
2022/03/18 02:14:38;;;;;;;9.80;2.78;;;8.80;99.90;;;;;;5058745;28;20435;-81
2022/03/18 02:17:06;;;;;;;7.32;2.63;;;8.70;99.90;;;;;;5075009;28;20446;-81
2022/03/18 02:19:32;;;;;;;9.40;2.25;;;8.70;99.90;;;;;;5058182;28;20064;-82
2022/03/18 02:21:58;;;;;;;8.18;2.85;;;8.70;99.90;;;;;;5057635;28;20078;-84
2022/03/18 02:24:25;;;;;;;5.57;2.50;;;8.70;99.90;;;;;;5058308;28;20119;-84
2022/03/18 02:26:53;;;;;;;7.57;2.58;;;8.70;99.90;;;;;;5058356;28;20020;-84
2022/03/18 02:29:19;;;;;;;8.98;2.55;;;8.70;99.90;;;;;;5058165;28;20082;-85
2022/03/18 02:31:46;;;;;;;5.43;2.38;;;8.70;99.90;;;;;;5058722;28;20020;-85
2022/03/18 02:34:12;;;;;;;5.90;2.30;;;8.70;99.90;;;;;;5075935;28;20017;-85
2022/03/18 02:36:37;;;;;;;6.95;2.47;;;8.70;99.90;;;;;;5058698;28;20142;-85
2022/03/18 02:39:04;;;;;;;11.30;2.42;;;8.70;99.90;;;;;;5075152;28;20469;-85
2022/03/18 02:41:30;;;;;;;6.25;2.30;;;8.60;99.90;;;;;;5057825;28;20420;-85
2022/03/18 02:43:56;;;;;;;7.65;2.38;;;8.70;99.90;;;;;;5057450;28;20032;-84
2022/03/18 02:46:21;;;;;;;9.80;2.30;;;8.60;99.90;;;;;;5075570;28;20028;-85
2022/03/18 02:48:48;;;;;;;9.43;2.53;;;8.60;99.90;;;;;;5057663;28;20021;-85
2022/03/18 02:51:14;;;;;;;7.72;2.33;;;8.60;99.90;;;;;;5057039;28;20115;-84
2022/03/18 02:53:40;;;;;;;5.72;2.33;;;8.60;99.90;;;;;;5057552;28;20411;-84
2022/03/18 02:56:06;;;;;;;9.25;2.70;;;8.60;99.90;;;;;;5057089;28;20021;-84
2022/03/18 02:58:32;;;;;;;8.07;2.70;;;8.60;99.90;;;;;;5057525;28;20024;-85
2022/03/18 03:00:57;;;;;;;5.57;2.30;;;8.50;99.90;;;;;;5057075;28;20028;-84
2022/03/18 03:03:23;;;;;;;5.72;2.40;;;8.50;99.90;;;;;;5075091;28;20052;-83
2022/03/18 03:08:33;;;;;;;8.18;2.20;;;8.50;99.90;;;;;;5074837;28;20030;-84
2022/03/18 03:10:59;;;;;;;10.23;2.28;;;8.50;99.90;;;;;;5056704;28;20119;-83
2022/03/18 03:13:24;;;;;;;8.38;2.13;;;8.50;99.90;;;;;;5056926;28;20067;-84
2022/03/18 03:15:50;;;;;;;9.35;2.47;;;8.50;99.90;;;;;;5057374;28;20016;-84
2022/03/18 03:18:16;;;;;;;8.50;2.33;;;8.50;99.90;;;;;;5073845;28;20536;-83
2022/03/18 03:20:42;;;;;;;8.65;2.15;;;8.50;99.90;;;;;;5057206;28;20052;-84
2022/03/18 03:23:08;;;;;;;5.65;2.58;;;8.50;99.90;;;;;;5056719;28;20400;-81
2022/03/18 03:25:33;;;;;;;9.80;2.40;;;8.50;99.90;;;;;;5056899;28;20031;-81
2022/03/18 03:27:59;;;;;;;6.95;2.67;;;8.50;99.90;;;;;;5073949;28;20508;-80
2022/03/18 03:30:25;;;;;;;8.77;1.92;;;8.50;99.90;;;;;;5057041;28;20047;-82
2022/03/18 03:32:51;;;;;;;7.45;2.42;;;8.50;99.90;;;;;;5056691;28;20119;-82
2022/03/18 03:35:17;;;;;;;8.55;2.22;;;8.50;99.90;;;;;;5056246;28;20020;-81
2022/03/18 03:37:43;;;;;;;7.57;2.17;;;8.50;99.90;;;;;;5056750;28;20020;-81
2022/03/18 03:40:13;;;;;;;8.40;2.47;;;8.50;99.90;;;;;;5055968;28;20047;-81
2022/03/18 03:42:40;;;;;;;6.70;2.03;;;8.50;99.90;;;;;;5056342;28;20031;-81
2022/03/18 03:45:06;;;;;;;7.68;1.80;;;8.50;99.90;;;;;;5056297;28;20024;-80
2022/03/18 03:47:32;;;;;;;7.97;2.15;;;8.50;99.90;;;;;;5056470;28;20028;-81
2022/03/18 03:49:58;;;;;;;7.93;2.00;;;8.50;99.90;;;;;;5056659;28;20365;-79
2022/03/18 03:52:23;;;;;;;5.30;2.28;;;8.40;99.90;;;;;;5056596;28;20437;-81
2022/03/18 03:54:49;;;;;;;8.85;2.22;;;8.40;99.90;;;;;;5073954;28;20044;-81
2022/03/18 03:57:16;;;;;;;9.05;2.38;;;8.40;99.90;;;;;;5039289;28;20064;-81
2022/03/18 03:59:41;;;;;;;9.82;2.45;;;8.40;99.90;;;;;;5055968;28;20035;-81
2022/03/18 04:02:08;;;;;;;6.60;2.38;;;8.40;99.90;;;;;;5073369;28;20453;-81
2022/03/18 04:04:34;;;;;;;9.73;2.70;;;8.30;99.90;;;;;;5056233;28;20445;-81
2022/03/18 04:07:00;;;;;;;7.82;2.25;;;8.30;99.90;;;;;;5055854;28;20032;-79
2022/03/18 04:09:25;;;;;;;8.85;2.05;;;8.30;99.90;;;;;;5056506;28;20028;-81
2022/03/18 04:11:51;;;;;;;8.45;2.63;;;8.40;99.90;;;;;;5056158;28;20088;-81
2022/03/18 04:14:17;;;;;;;10.32;2.92;;;8.30;99.90;;;;;;5055658;28;20032;-81
2022/03/18 04:16:44;;;;;;;5.90;2.38;;;8.30;99.90;;;;;;5055762;28;20077;-81
2022/03/18 04:19:10;;;;;;;9.50;2.55;;;8.30;99.90;;;;;;5073207;28;20074;-81
2022/03/18 04:21:36;;;;;;;6.78;2.38;;;8.30;99.90;;;;;;5073667;28;20027;-80
2022/03/18 04:24:02;;;;;;;6.72;2.50;;;8.30;99.90;;;;;;5073052;28;20445;-80
2022/03/18 04:26:27;;;;;;;7.18;2.45;;;8.30;99.90;;;;;;5073780;28;20032;-81
2022/03/18 04:28:53;;;;;;;11.82;2.38;;;8.30;99.90;;;;;;5056091;28;20021;-81
2022/03/18 04:31:19;;;;;;;10.85;2.90;;;8.30;99.90;;;;;;5073343;28;20102;-84
2022/03/18 04:33:44;;;;;;;8.75;2.65;;;8.30;99.90;;;;;;5073764;28;20031;-82
2022/03/18 04:36:10;;;;;;;6.95;2.35;;;8.30;99.90;;;;;;5073032;28;20024;-81
2022/03/18 04:38:36;;;;;;;6.47;2.15;;;8.30;99.90;;;;;;5055810;28;20024;-81
2022/03/18 04:41:02;;;;;;;7.78;2.50;;;8.30;99.90;;;;;;5056931;28;20038;-81
2022/03/18 04:43:27;;;;;;;8.32;2.60;;;8.30;99.90;;;;;;5060218;28;20024;-84
2022/03/18 04:45:53;;;;;;;7.90;2.53;;;8.20;99.90;;;;;;5060286;28;20374;-84
2022/03/18 04:48:19;;;;;;;8.38;2.55;;;8.20;99.90;;;;;;5059601;28;20513;-84
2022/03/18 04:50:44;;;;;;;9.68;2.20;;;8.20;99.90;;;;;;5077684;28;20020;-85
2022/03/18 04:53:10;;;;;;;7.47;2.33;;;8.20;99.90;;;;;;5059536;28;20063;-84
2022/03/18 04:55:36;;;;;;;7.43;2.25;;;8.20;99.90;;;;;;5077803;28;20396;-85
2022/03/18 04:58:02;;;;;;;6.07;2.67;;;8.20;99.90;;;;;;5059930;28;20457;-85
2022/03/18 05:00:28;;;;;;;6.47;2.55;;;8.20;99.90;;;;;;5077720;28;20086;-85
2022/03/18 05:02:55;;;;;;;8.10;2.47;;;8.10;99.90;;;;;;5077378;28;20060;-81
2022/03/18 05:05:21;;;;;;;9.68;2.50;;;8.10;99.90;;;;;;5076652;28;20127;-81
2022/03/18 05:07:49;;;;;;;6.95;2.40;;;8.20;99.90;;;;;;5059335;28;20024;-81
2022/03/18 05:10:15;;;;;;;6.47;2.30;;;8.20;99.90;;;;;;5076632;28;20450;-82
2022/03/18 05:12:41;;;;;;;7.72;2.40;;;8.20;99.90;;;;;;5077131;28;20027;-82
2022/03/18 05:15:08;;;;;;;10.98;3.58;;;8.20;99.90;;;;;;5058954;28;20024;-82
2022/03/18 05:17:34;;;;;;;6.03;2.45;;;8.10;99.90;;;;;;5076887;28;20028;-82
2022/03/18 05:20:01;;;;;;;11.30;3.30;;;8.10;99.90;;;;;;5059146;28;20123;-82
2022/03/18 05:22:26;;;;;;;7.95;2.53;;;8.10;99.90;;;;;;5076354;28;20024;-82
2022/03/18 05:24:52;;;;;;;7.32;2.53;;;8.10;99.90;;;;;;5059005;28;20023;-82
2022/03/18 05:27:19;;;;;;;7.30;2.67;;;8.10;99.90;;;;;;5058563;28;20170;-82
2022/03/18 05:29:44;;;;;;;8.45;2.63;;;8.00;99.90;;;;;;5059013;28;20020;-84
2022/03/18 05:32:11;;;;;;;6.97;2.22;;;8.00;99.90;;;;;;5058475;28;20373;-83
2022/03/18 05:34:37;;;;;;;8.57;2.55;;;8.10;99.90;;;;;;5058903;28;20027;-83
2022/03/18 05:37:05;;;;;;;5.20;2.42;;;8.00;99.90;;;;;;5076843;28;20036;-83
2022/03/18 05:39:32;;;;;;;11.68;2.95;;;8.00;99.90;;;;;;5076911;28;20146;-83
2022/03/18 05:41:58;;;;;;;9.00;2.47;;;8.00;99.90;;;;;;5059308;28;20021;-81
2022/03/18 05:44:24;;;;;;;11.23;2.78;;;8.00;99.90;;;;;;5058486;28;20105;-82
2022/03/18 05:46:51;;;;;;;7.28;2.53;;;8.00;99.90;;;;;;5058973;28;20035;-82
2022/03/18 05:49:18;;;;;;;10.07;3.15;;;7.90;99.90;;;;;;5058247;28;20028;-82
2022/03/18 05:51:44;;;;;;;7.55;2.63;;;7.90;99.90;;;;;;5058091;28;20025;-83
2022/03/18 05:54:10;;;;;;;12.23;3.25;;;7.90;99.90;;;;;;5057604;28;20025;-82
2022/03/18 05:56:55;;;;;;;11.75;2.80;;;7.90;99.90;;;;;;5076508;28;20032;-83
2022/03/18 05:59:27;;;;;;;9.20;2.97;;;7.90;99.90;;;;;;5076105;28;20016;-81
2022/03/18 06:01:54;;;;;;;;;;;7.90;99.90;;;;;;5076587;28;20017;-81
2022/03/18 06:04:20;;;;;;;7.00;2.35;;;7.90;99.90;;;;;;5075903;28;19904;-82
2022/03/18 06:06:47;;;;;;;10.52;2.80;;;7.90;99.90;;;;;;5076305;28;20036;-82
2022/03/18 06:12:15;;;;;;;10.43;2.90;;;7.90;99.90;;;;;;4994177;28;20470;-80
2022/03/18 06:14:41;;;;;;;7.72;2.90;;;7.90;99.90;;;;;;5045152;28;20056;-80
2022/03/18 06:17:07;;;;;;;9.50;3.00;;;7.90;99.90;;;;;;5058211;28;20032;-80
2022/03/18 06:19:33;;;;;;;12.98;2.47;;;7.90;99.90;;;;;;5076086;28;20070;-85
2022/03/18 06:21:59;;;;;;;9.80;3.17;;;7.90;99.90;;;;;;5058108;28;20024;-84
2022/03/18 06:24:25;;;;;;;9.25;3.30;;;7.90;99.90;;;;;;5057637;28;20024;-81
2022/03/18 06:26:52;;;;;;;8.25;3.08;;;7.90;99.90;;;;;;5076103;28;20027;-83
2022/03/18 06:29:19;;;;;;;11.68;3.67;;;8.00;99.90;;;;;;5057467;28;20142;-83
2022/03/18 06:31:45;;;;;;;8.00;2.70;;;8.00;99.90;;;;;;5075811;28;20027;-82
2022/03/18 06:34:11;;;;;;;10.40;3.00;;;8.00;99.90;;;;;;5057696;28;20082;-84
2022/03/18 06:36:38;;;;;;;9.95;2.63;;;8.00;99.90;;;;;;5075577;28;20028;-84
2022/03/18 06:39:04;;;;;;;8.95;3.60;;;7.90;99.90;;;;;;5075322;28;20031;-85
2022/03/18 06:41:31;;;;;;;9.52;3.35;;;8.00;99.90;;;;;;5074925;28;20024;-85
2022/03/18 06:43:57;;;;;;;8.52;2.95;;;8.00;99.90;;;;;;5058214;28;20104;-85
2022/03/18 06:46:23;;;;;;;10.73;3.20;;;8.00;99.90;;;;;;5074872;28;20097;-84
2022/03/18 06:48:49;;;;;;;9.82;3.10;;;8.00;99.90;;;;;;5057768;28;20364;-85
2022/03/18 06:51:15;;;;;;;8.90;3.13;;;8.00;99.90;;;;;;5075185;28;20105;-85
2022/03/18 06:53:41;;;;;;;8.90;2.88;;;8.10;99.90;;;;;;5058198;28;20016;-85
2022/03/18 06:56:07;;;;;;;7.68;3.10;;;8.10;99.90;;;;;;5057797;28;20055;-85
2022/03/18 06:58:33;;;;;;;7.88;3.08;;;8.10;99.90;;;;;;5074636;28;20119;-86
2022/03/18 07:00:59;;;;;;;5.75;3.05;;;8.10;99.90;;;;;;5057657;28;20032;-85
2022/03/18 07:03:25;;;;;;;9.32;2.60;;;8.10;99.90;;;;;;5074473;28;20017;-85
2022/03/18 07:05:51;;;;;;;8.30;3.10;;;8.10;99.90;;;;;;5057300;28;20016;-85
2022/03/18 07:08:17;;;;;;;8.25;2.72;;;8.10;99.90;;;;;;5074627;28;20051;-84
2022/03/18 07:10:43;;;;;;;10.32;3.20;;;8.10;99.90;;;;;;5057465;28;20338;-85
2022/03/18 07:13:09;;;;;;;11.07;2.92;;;8.10;99.90;;;;;;5075048;28;20173;-85
2022/03/18 07:15:34;;;;;;;8.48;3.05;;;8.10;99.90;;;;;;5056945;28;20025;-85
2022/03/18 07:18:01;;;;;;;11.38;3.38;;;8.10;99.90;;;;;;5074875;28;20052;-85
2022/03/18 07:20:38;;;;;;;15.48;3.28;;;8.10;99.90;;;;;;5056433;28;20029;-82
2022/03/18 07:23:12;;;;;;;10.30;3.38;;;8.10;99.90;;;;;;5074913;28;20028;-82
2022/03/18 07:25:47;;;;;;;9.77;3.70;;;8.10;99.90;;;;;;5057061;28;20107;-81
2022/03/18 07:28:15;;;;;;;5.35;2.75;;;8.10;99.90;;;;;;5073886;28;20028;-82
2022/03/18 07:30:42;;;;;;;12.73;3.40;;;8.20;99.90;;;;;;5056812;28;20028;-83
2022/03/18 07:33:08;;;;;;;10.73;3.05;;;8.20;99.90;;;;;;5056699;28;20028;-84
2022/03/18 07:35:35;;;;;;;8.07;3.03;;;8.20;99.90;;;;;;5056251;28;20016;-82
2022/03/18 07:38:02;;;;;;;8.77;2.85;;;8.20;99.90;;;;;;5074577;28;20563;-82
2022/03/18 07:40:28;;;;;;;10.23;3.13;;;8.20;99.90;;;;;;5056176;28;20025;-83
2022/03/18 07:42:56;;;;;;;13.48;3.20;;;8.30;99.90;;;;;;5056494;28;20020;-83
2022/03/18 07:45:26;;;;;;;8.90;3.50;;;8.30;99.90;;;;;;5055871;28;20104;-83
2022/03/18 07:47:53;;;;;;;12.48;3.15;;;8.30;99.90;;;;;;5074060;28;20506;-83
2022/03/18 07:50:20;;;;;;;7.78;3.03;;;8.30;99.90;;;;;;5055578;28;20070;-82
2022/03/18 07:52:51;;;;;;;12.85;3.40;;;8.30;99.90;;;;;;5056348;28;20024;-82
2022/03/18 07:55:22;;;;;;;10.32;3.40;;;8.40;99.90;;;;;;5055838;28;20030;-81
2022/03/18 07:57:48;;;;;;;8.95;3.08;;;8.30;99.90;;;;;;5074149;28;20024;-81
2022/03/18 08:00:16;;;;;;;10.25;3.63;;;8.40;99.90;;;;;;5073462;28;20444;-81
2022/03/18 08:02:44;;;;;;;9.00;3.78;;;8.40;99.90;;;;;;5074244;28;20027;-84
2022/03/18 08:05:11;;;;;;;8.20;3.35;;;8.50;99.90;;;;;;5056529;28;20021;-86
2022/03/18 08:07:37;;;;;;;11.93;3.63;;;8.50;99.90;;;;;;5073636;28;20078;-86
2022/03/18 08:10:04;;;;;;;12.07;3.53;;;8.50;99.90;;;;;;5056333;28;20021;-81
2022/03/18 08:12:31;;;;;;;7.72;3.92;;;8.60;99.90;;;;;;5055638;28;20024;-80
2022/03/18 08:15:02;;;;;;;13.82;3.70;;;8.60;99.90;;;;;;5073339;28;20013;-80
2022/03/18 08:17:28;;;;;;;9.55;3.47;;;8.70;99.90;;;;;;5055457;28;20033;-80
2022/03/18 08:19:54;;;;;;;8.65;3.45;;;8.80;99.90;;;;;;5055718;28;20044;-76
2022/03/18 08:22:21;;;;;;;9.93;3.65;;;8.80;99.90;;;;;;5072911;28;20028;-80
2022/03/18 08:24:47;;;;;;;10.32;3.20;;;8.90;99.90;;;;;;5073833;28;20016;-81
2022/03/18 08:27:13;;;;;;;10.20;3.85;;;8.90;99.90;;;;;;5056156;28;20119;-82
2022/03/18 08:29:38;;;;;;;9.98;3.80;;;8.90;99.90;;;;;;5055282;28;20066;-86
2022/03/18 08:32:11;;;;;;;12.32;4.15;;;8.80;99.90;;;;;;5054996;28;20028;-81
2022/03/18 08:34:37;;;;;;;10.10;3.75;;;8.80;99.90;;;;;;5070822;28;20459;-81
2022/03/18 08:37:05;;;;;;;10.32;3.90;;;8.80;99.90;;;;;;5072880;28;20031;-79
2022/03/18 08:39:34;;;;;;;9.63;3.53;;;8.80;99.90;;;;;;5067044;28;20052;-80
2022/03/18 08:42:00;;;;;;;14.23;4.07;;;8.90;99.90;;;;;;5072952;28;20021;-82
2022/03/18 08:44:26;;;;;;;13.13;3.72;;;9.00;99.90;;;;;;5072201;28;20025;-82
2022/03/18 08:46:52;;;;;;;11.52;4.03;;;9.00;99.90;;;;;;5055216;28;20082;-83
2022/03/18 08:49:18;;;;;;;8.73;4.03;;;9.00;99.90;;;;;;5054660;28;20024;-80
2022/03/18 08:51:43;;;;;;;9.55;3.58;;;9.00;99.90;;;;;;5055348;28;20412;-80
2022/03/18 08:54:09;;;;;;;9.68;3.83;;;9.10;99.90;;;;;;5055199;28;20066;-81
2022/03/18 08:56:35;;;;;;;10.63;3.97;;;9.10;99.90;;;;;;5054106;28;20037;-81
2022/03/18 08:59:06;;;;;;;9.45;3.92;;;9.10;99.90;;;;;;5054784;28;20032;-81
2022/03/18 09:01:33;;;;;;;14.67;3.83;;;9.20;99.90;;;;;;5067578;28;20039;-81
2022/03/18 09:03:58;;;;;;;9.68;3.83;;;9.30;99.90;;;;;;5055614;28;20526;-82
2022/03/18 09:06:24;;;;;;;11.70;3.95;;;9.40;99.90;;;;;;5054801;28;20013;-82
2022/03/18 09:08:50;;;;;;;10.52;3.67;;;9.40;99.90;;;;;;5054897;28;20389;-81
2022/03/18 09:11:16;;;;;;;18.30;4.78;;;9.50;99.90;;;;;;5072809;28;20022;-79
2022/03/18 09:13:41;;;;;;;13.48;4.00;;;9.60;99.90;;;;;;5072983;28;20031;-83
2022/03/18 09:16:07;;;;;;;10.50;3.90;;;9.60;99.90;;;;;;5056517;28;20101;-83
2022/03/18 09:18:33;;;;;;;10.05;3.92;;;9.70;99.90;;;;;;5073310;28;20079;-84
2022/03/18 09:20:58;;;;;;;8.23;3.95;;;9.80;99.90;;;;;;5055961;28;20028;-84
2022/03/18 09:23:24;;;;;;;10.90;4.13;;;9.80;99.90;;;;;;5073607;28;20016;-84
2022/03/18 09:25:51;;;;;;;11.25;4.30;;;9.90;99.90;;;;;;5057360;28;20033;-83
2022/03/18 09:28:17;;;;;;;10.18;3.90;;;9.90;99.90;;;;;;5058699;28;20059;-80
2022/03/18 09:30:43;;;;;;;11.05;4.85;;;10.00;99.90;;;;;;5062079;28;20115;-85
2022/03/18 09:33:09;;;;;;;12.68;3.58;;;9.90;99.90;;;;;;5062974;28;20059;-85
2022/03/18 09:35:36;;;;;;;12.75;3.65;;;9.90;99.90;;;;;;5061411;28;20362;-86
2022/03/18 09:38:02;;;;;;;9.40;3.75;;;10.00;99.90;;;;;;5070404;28;20460;-81
2022/03/18 09:40:28;;;;;;;12.88;3.75;;;10.00;99.90;;;;;;5084993;28;20043;-84
2022/03/18 09:43:08;;;;;;;13.43;4.53;;;10.00;99.90;;;;;;5086189;28;20029;-85
2022/03/18 09:45:38;;;;;;;11.63;4.07;;;10.10;99.90;;;;;;5077987;28;20029;-84
2022/03/18 09:48:06;;;;;;;10.45;4.18;;;10.20;99.90;;;;;;5054368;28;20515;-83
2022/03/18 09:50:33;;;;;;;10.55;4.53;;;10.20;99.90;;;;;;5058450;28;20028;-84
2022/03/18 09:52:59;;;;;;;12.15;4.50;;;10.30;99.90;;;;;;5076060;28;20453;-87
2022/03/18 09:55:25;;;;;;;14.18;4.75;;;10.40;99.90;;;;;;5073710;28;20085;-78
2022/03/18 09:57:52;;;;;;;13.73;4.97;;;10.40;99.90;;;;;;5046715;28;20020;-83
2022/03/18 10:00:18;;;;;;;14.30;5.85;;;10.50;99.90;;;;;;5075456;28;20107;-78
2022/03/18 10:02:44;;;;;;;12.25;5.82;;;10.60;99.90;;;;;;5074240;28;20108;-85
2022/03/18 10:05:14;;;;;;;15.65;6.47;;;10.70;99.90;;;;;;5059973;28;20040;-85
2022/03/18 10:07:51;;;;;;;15.30;6.90;;;10.70;99.80;;;;;;5057690;28;20032;-81
2022/03/18 10:10:17;;;;;;;17.70;7.18;;;10.80;99.60;;;;;;5072889;28;20154;-83
2022/03/18 10:12:47;;;;;;;14.93;6.95;;;11.00;99.90;;;;;;5049085;28;20043;-80
2022/03/18 10:15:15;;;;;;;16.73;6.93;;;11.10;99.90;;;;;;5067899;28;20021;-80
2022/03/18 10:17:48;;;;;;;18.20;7.45;;;11.20;99.90;;;;;;5055726;28;20083;-79
2022/03/18 10:20:29;;;;;;;18.75;8.02;;;11.20;98.60;;;;;;5054439;28;20484;-79
2022/03/18 10:22:58;;;;;;;13.95;6.90;;;11.30;98.90;;;;;;5054795;28;20128;-80
2022/03/18 10:25:37;;;;;;;18.02;8.00;;;11.30;98.40;;;;;;5058385;28;20032;-84
2022/03/18 10:28:04;;;;;;;17.75;7.70;;;11.30;99.20;;;;;;5081920;28;20026;-85
2022/03/18 10:30:31;;;;;;;19.25;8.43;;;11.40;97.80;;;;;;5059498;28;20025;-86
2022/03/18 10:32:57;;;;;;;21.67;8.43;;;11.50;98.80;;;;;;5068196;28;20035;-82
2022/03/18 10:38:28;;;;;;;20.77;8.68;;;11.60;97.30;;;;;;5074119;28;20082;-79
2022/03/18 10:40:55;;;;;;;18.13;7.95;;;11.80;98.10;;;;;;5061877;28;20041;-81
2022/03/18 10:43:21;;;;;;;16.20;7.50;;;11.90;97.90;;;;;;5056298;28;20024;-81
2022/03/18 10:46:20;;;;;;;17.60;8.48;;;12.00;97.40;;;;;;5063318;28;20024;-81
2022/03/18 10:49:05;;;;;;;17.83;7.93;;;12.00;96.90;;;;;;5045907;28;20072;-82
2022/03/18 10:51:32;;;;;;;20.70;9.35;;;12.10;97.60;;;;;;5056905;28;20047;-80
2022/03/18 10:53:58;;;;;;;21.35;8.40;;;12.10;96.00;;;;;;5053099;28;20131;-80
2022/03/18 10:56:27;;;;;;;19.25;8.13;;;12.10;97.40;;;;;;5073241;28;20198;-78
2022/03/18 10:58:53;;;;;;;19.58;8.90;;;12.20;96.80;;;;;;5053273;28;20040;-79
2022/03/18 11:01:19;;;;;;;15.70;8.35;;;12.20;96.90;;;;;;5058815;28;20393;-77
2022/03/18 11:03:46;;;;;;;17.50;8.68;;;12.20;95.80;;;;;;5059089;28;20027;-87
2022/03/18 11:06:16;;;;;;;17.40;8.93;;;12.20;96.50;;;;;;5062287;28;20054;-81
2022/03/18 11:08:47;;;;;;;17.42;8.15;;;12.20;95.80;;;;;;5064036;28;20024;-81
2022/03/18 11:11:18;;;;;;;21.95;8.38;;;12.30;96.50;;;;;;5074963;28;20544;-81
2022/03/18 11:13:51;;;;;;;18.20;8.07;;;12.20;96.70;;;;;;5061690;28;20162;-83
2022/03/18 11:16:22;;;;;;;19.10;8.35;;;12.20;96.70;;;;;;5073327;28;20064;-83
2022/03/18 11:18:49;;;;;;;17.77;9.00;;;12.30;97.40;;;;;;5072308;28;20074;-85
2022/03/18 11:21:16;;;;;;;17.83;8.27;;;12.40;96.50;;;;;;5057712;28;20040;-81
2022/03/18 11:23:45;;;;;;;21.30;9.75;;;12.30;95.30;;;;;;5087978;28;20025;-81
2022/03/18 11:26:14;;;;;;;25.98;9.35;;;12.30;96.30;;;;;;5051505;28;20025;-80
2022/03/18 11:28:40;;;;;;;19.98;8.73;;;12.30;95.30;;;;;;5064342;28;20628;-83
2022/03/18 11:31:11;;;;;;;19.88;8.07;;;12.30;96.00;;;;;;5060089;28;20036;-82
2022/03/18 11:33:38;;;;;;;18.25;8.52;;;12.30;96.30;;;;;;5056370;28;20036;-81
2022/03/18 11:36:08;;;;;;;17.63;8.05;;;12.30;95.40;;;;;;5075488;28;20020;-81
2022/03/18 11:38:51;;;;;;;16.55;7.70;;;12.40;95.20;;;;;;5053838;28;20040;-80
2022/03/18 11:41:19;;;;;;;21.13;8.52;;;12.50;95.50;;;;;;5055535;28;20024;-79
2022/03/18 11:43:44;;;;;;;20.70;8.40;;;12.60;95.50;;;;;;5057565;28;20028;-80
2022/03/18 11:46:13;;;;;;;19.30;7.93;;;12.80;95.80;;;;;;5069522;28;20027;-81
2022/03/18 11:49:12;;;;;;;18.20;9.23;;;12.80;94.20;;;;;;5049577;28;20040;-80
2022/03/18 11:51:44;;;;;;;17.35;8.07;;;12.80;94.90;;;;;;5051964;28;20029;-81
2022/03/18 11:54:23;;;;;;;18.63;8.15;;;12.90;94.20;;;;;;5049615;28;20369;-78
2022/03/18 11:56:51;;;;;;;16.92;7.85;;;12.80;94.90;;;;;;5053064;28;20037;-82
2022/03/18 11:59:25;;;;;;;16.13;8.55;;;12.70;94.40;;;;;;5051353;28;20025;-81
2022/03/18 12:02:05;;;;;;;16.75;8.32;;;12.80;95.90;;;;;;5053307;28;20040;-80
2022/03/18 12:04:34;;;;;;;18.75;8.25;;;13.00;95.10;;;;;;5070443;28;20020;-79
2022/03/18 12:07:24;;;;;;;18.30;8.10;;;13.00;94.30;;;;;;5052870;28;20024;-77
2022/03/18 12:10:05;;;;;;;17.27;8.80;;;13.20;93.60;;;;;;5053561;28;20024;-79
2022/03/18 12:12:40;;;;;;;16.13;8.63;;;13.30;93.60;;;;;;5053920;28;20074;-79
2022/03/18 12:15:08;;;;;;;18.45;8.70;;;13.30;93.40;;;;;;5054287;28;20423;-77
2022/03/18 12:17:53;;;;;;;21.15;9.10;;;13.30;94.00;;;;;;5052438;28;20078;-78
2022/03/18 12:20:23;;;;;;;17.15;8.30;;;13.40;94.20;;;;;;5062552;28;20043;-83
2022/03/18 12:22:51;;;;;;;20.88;9.00;;;13.30;93.00;;;;;;5065953;28;20024;-89
2022/03/18 12:25:17;;;;;;;19.73;9.25;;;13.30;92.90;;;;;;5060203;28;20028;-89
2022/03/18 12:27:44;;;;;;;20.10;9.55;;;13.30;93.40;;;;;;5054718;28;20036;-88
2022/03/18 12:30:15;;;;;;;21.73;9.80;;;13.40;92.50;;;;;;5056194;28;20029;-90
2022/03/18 12:32:51;;;;;;;23.63;11.07;;;13.40;93.40;;;;;;5053438;28;20051;-89
2022/03/18 12:35:18;;;;;;;26.17;12.00;;;13.40;92.50;;;;;;5046823;28;20120;-89
2022/03/18 12:37:46;;;;;;;21.85;10.38;;;13.40;92.90;;;;;;5089039;28;20033;-90
2022/03/18 12:40:16;;;;;;;21.13;9.98;;;13.50;92.80;;;;;;5056587;28;20035;-88
2022/03/18 12:42:45;;;;;;;20.20;9.23;;;13.50;91.40;;;;;;5056910;28;20036;-88
2022/03/18 12:45:11;;;;;;;19.25;9.32;;;13.60;92.80;;;;;;5071285;28;20025;-81
2022/03/18 12:47:38;;;;;;;17.92;9.50;;;13.50;91.90;;;;;;5066885;28;20462;-86
2022/03/18 12:50:04;;;;;;;18.70;8.70;;;13.50;93.00;;;;;;5057243;28;20024;-81
2022/03/18 12:52:30;;;;;;;21.08;8.50;;;13.60;93.10;;;;;;5072355;28;20078;-82
2022/03/18 12:55:10;;;;;;;17.80;8.57;;;13.60;92.90;;;;;;5057336;28;20502;-81
2022/03/18 12:57:41;;;;;;;18.58;9.27;;;13.80;92.80;;;;;;5084167;28;20033;-82
2022/03/18 13:00:11;;;;;;;17.27;8.90;;;13.70;91.40;;;;;;5083463;28;20161;-89
2022/03/18 13:02:37;;;;;;;20.90;9.40;;;13.90;91.40;;;;;;5066966;28;20040;-80
2022/03/18 13:05:07;;;;;;;19.88;9.50;;;13.90;91.70;;;;;;5075090;28;20057;-79
2022/03/18 13:07:32;;;;;;;19.13;9.10;;;13.90;90.90;;;;;;5073538;28;20409;-79